Time;durP1;ratioP1;P1;durP2;ratioP2;P2;SDS_P1;SDS_P2;PMS_P1;PMS_P2;Temp;Humidity;BMP_temperature;BMP_pressure;BME280_temperature;BME280_humidity;BME280_pressure;Samples;Min_cycle;Max_cycle;Signal;HPM_P1;HPM_P2
2022/01/21 00:00:11;;;;;;;;;;;;;;;11.26;48.97;101367.31;4981817;27;99113;-64
2022/01/21 00:02:38;;;;;;;;;;;;;;;11.25;49.47;101381.91;4982784;27;97758;-56
2022/01/21 00:05:05;;;;;;;;;;;;;;;11.25;49.46;101385.41;4982673;27;97793;-64
2022/01/21 00:07:31;;;;;;;;;;;;;;;11.24;49.04;101383.78;4977794;28;112344;-57
2022/01/21 00:09:57;;;;;;;;;;;;;;;11.24;48.88;101393.78;4982647;28;98360;-56
2022/01/21 00:12:23;;;;;;;;;;;;;;;11.23;49.06;101395.63;4982063;28;123189;-57
2022/01/21 00:14:49;;;;;;;;;;;;;;;11.23;49.54;101408.31;4982548;27;98158;-64
2022/01/21 00:17:17;;;;;;;;;;;;;;;11.23;48.85;101394.81;4980928;28;128029;-64
2022/01/21 00:19:47;;;;;;;;;;;;;;;11.23;48.87;101381.31;4982070;28;99165;-57
2022/01/21 00:30:27;;;;;;;;;;;;;;;11.20;49.03;101393.44;4980838;27;98659;-64
2022/01/21 00:32:53;;;;;;;;;;;;;;;11.19;49.40;101399.88;4980398;28;97842;-64
2022/01/21 00:35:19;;;;;;;;;;;;;;;11.19;48.97;101401.78;4981285;28;110418;-56
2022/01/21 00:37:45;;;;;;;;;;;;;;;11.20;49.06;101403.41;4982295;27;98865;-57
2022/01/21 00:40:14;;;;;;;;;;;;;;;11.19;49.43;101409.88;4978999;28;99088;-64
2022/01/21 00:45:11;;;;;;;;;;;;;;;11.19;48.68;101418.78;4980745;27;98011;-64
2022/01/21 00:47:37;;;;;;;;;;;;;;;11.18;48.63;101433.34;4981381;28;98280;-57
2022/01/21 00:50:04;;;;;;;;;;;;;;;11.19;49.16;101426.88;4981017;28;127351;-57
2022/01/21 00:52:30;;;;;;;;;;;;;;;11.20;49.14;101425.00;4981886;27;98513;-57
2022/01/21 00:54:56;;;;;;;;;;;;;;;11.19;49.34;101407.16;4981118;28;118760;-57
2022/01/21 00:57:22;;;;;;;;;;;;;;;11.20;48.93;101416.91;4981716;28;98679;-64
2022/01/21 00:59:47;;;;;;;;;;;;;;;11.20;48.75;101414.19;4980403;28;126242;-64
2022/01/21 01:02:13;;;;;;;;;;;;;;;11.19;49.16;101413.38;4979991;28;128465;-64
2022/01/21 01:04:39;;;;;;;;;;;;;;;11.18;48.68;101419.84;4978085;27;117039;-64
2022/01/21 01:07:05;;;;;;;;;;;;;;;11.19;49.09;101420.66;4981267;28;101949;-56
2022/01/21 01:09:32;;;;;;;;;;;;;;;11.18;48.91;101427.94;4979161;28;105712;-64
2022/01/21 01:20:07;;;;;;;;;;;;;;;11.16;48.77;101446.28;4979576;28;98016;-57
2022/01/21 01:22:49;;;;;;;;;;;;;;;11.17;48.96;101441.69;4981729;27;97951;-56
2022/01/21 01:27:59;;;;;;;;;;;;;;;11.16;48.58;101438.19;4978407;28;98243;-56
2022/01/21 01:30:27;;;;;;;;;;;;;;;11.15;48.33;101449.22;4980723;28;124495;-63
2022/01/21 01:32:56;;;;;;;;;;;;;;;11.15;48.93;101452.72;4981557;27;98118;-63
2022/01/21 01:35:22;;;;;;;;;;;;;;;11.14;48.57;101456.50;4980911;28;98156;-63
2022/01/21 01:40:31;;;;;;;;;;;;;;;11.14;48.63;101461.88;4979812;27;98563;-63
2022/01/21 01:49:22;;;;;;;;;;;;;;;11.14;48.45;101450.28;4981992;27;97887;-63
2022/01/21 01:51:17;;;;;;;;;;;;;;;11.14;48.26;101453.78;4979708;27;98213;-55
2022/01/21 01:53:48;;;;;;;;;;;;;;;11.15;47.97;101460.81;4961479;28;98385;-63
2022/01/21 01:56:14;;;;;;;;;;;;;;;11.14;48.34;101451.09;4961433;28;97970;-63
2022/01/21 01:58:41;;;;;;;;;;;;;;;11.15;48.28;101455.41;4975028;28;98803;-63
2022/01/21 02:01:07;;;;;;;;;;;;;;;11.17;48.54;101452.50;4980066;27;121306;-57
2022/01/21 02:03:33;;;;;;;;;;;;;;;11.16;48.50;101451.69;4980116;28;112723;-63
2022/01/21 02:05:59;;;;;;;;;;;;;;;11.17;48.37;101457.88;4980682;27;97903;-63
2022/01/21 02:08:25;;;;;;;;;;;;;;;11.16;47.91;101448.13;4979743;28;128128;-63
2022/01/21 02:10:52;;;;;;;;;;;;;;;11.17;48.63;101453.31;4979446;28;98317;-64
2022/01/21 02:13:21;;;;;;;;;;;;;;;11.17;47.94;101450.59;4980491;28;109650;-63
2022/01/21 02:15:57;;;;;;;;;;;;;;;11.18;48.58;101454.13;4977296;28;97954;-63
2022/01/21 02:24:05;;;;;;;;;;;;;;;11.17;48.51;101460.59;4978026;27;97953;-63
2022/01/21 02:26:32;;;;;;;;;;;;;;;11.16;48.06;101454.38;4978883;27;97911;-56
2022/01/21 02:29:00;;;;;;;;;;;;;;;11.16;48.23;101453.53;4980895;28;98955;-56
2022/01/21 02:31:26;;;;;;;;;;;;;;;11.15;48.50;101451.91;4980553;27;99524;-63
2022/01/21 02:33:52;;;;;;;;;;;;;;;11.15;48.16;101460.81;4980192;28;127575;-63
2022/01/21 02:36:18;;;;;;;;;;;;;;;11.14;48.09;101458.38;4979544;27;117654;-56
2022/01/21 02:38:43;;;;;;;;;;;;;;;11.12;47.83;101464.03;4979619;28;118005;-63
2022/01/21 02:41:10;;;;;;;;;;;;;;;11.12;47.82;101458.63;4978494;27;128041;-63
2022/01/21 02:43:36;;;;;;;;;;;;;;;11.12;48.06;101463.19;4981029;28;98058;-63
2022/01/21 02:46:06;;;;;;;;;;;;;;;11.07;47.87;101459.34;4979335;28;107240;-63
2022/01/21 02:48:35;;;;;;;;;;;;;;;11.10;47.88;101465.34;4979767;28;98517;-57
2022/01/21 02:51:01;;;;;;;;;;;;;;;11.09;47.65;101474.50;4979785;27;99031;-63
2022/01/21 02:53:40;;;;;;;;;;;;;;;11.08;47.70;101473.66;4960326;28;121884;-56
2022/01/21 02:56:07;;;;;;;;;;;;;;;11.07;47.67;101467.44;4960358;28;98108;-57
2022/01/21 02:58:33;;;;;;;;;;;;;;;11.07;48.03;101467.44;4977999;28;98545;-63
2022/01/21 03:00:59;;;;;;;;;;;;;;;11.05;47.97;101474.16;4979575;28;99631;-56
2022/01/21 03:03:25;;;;;;;;;;;;;;;11.05;48.18;101469.59;4979579;28;113788;-56
2022/01/21 03:05:51;;;;;;;;;;;;;;;11.05;48.04;101474.16;4979169;27;118053;-63
2022/01/21 03:08:17;;;;;;;;;;;;;;;11.04;47.96;101467.13;4978612;28;128474;-56
2022/01/21 03:10:43;;;;;;;;;;;;;;;11.04;48.24;101475.22;4978326;28;128185;-56
2022/01/21 03:13:08;;;;;;;;;;;;;;;11.03;47.48;101473.59;4978936;28;128540;-56
2022/01/21 03:15:34;;;;;;;;;;;;;;;11.02;48.10;101483.56;4978192;28;118311;-63
2022/01/21 03:18:00;;;;;;;;;;;;;;;11.02;47.52;101477.34;4979141;28;106992;-63
2022/01/21 03:20:26;;;;;;;;;;;;;;;11.01;47.94;101481.13;5010751;27;127794;-63
2022/01/21 03:22:52;;;;;;;;;;;;;;;10.99;47.82;101481.34;4977048;28;125369;-56
2022/01/21 03:25:18;;;;;;;;;;;;;;;11.00;47.79;101482.16;4980264;27;97814;-63
2022/01/21 03:27:44;;;;;;;;;;;;;;;10.99;48.07;101483.22;4980696;27;104073;-56
2022/01/21 03:30:10;;;;;;;;;;;;;;;10.99;48.01;101480.53;4982748;27;98429;-64
2022/01/21 03:32:36;;;;;;;;;;;;;;;10.96;47.64;101479.13;4982249;28;98267;-56
2022/01/21 03:35:03;;;;;;;;;;;;;;;10.97;47.63;101485.38;4980691;27;107971;-56
2022/01/21 03:37:29;;;;;;;;;;;;;;;10.96;47.83;101484.53;4982540;28;98852;-56
2022/01/21 03:39:54;;;;;;;;;;;;;;;10.96;47.68;101484.53;4982375;28;120229;-56
2022/01/21 03:42:20;;;;;;;;;;;;;;;10.95;47.47;101484.78;4981718;28;127246;-56
2022/01/21 03:44:46;;;;;;;;;;;;;;;10.95;47.88;101492.88;4982092;27;97736;-56
2022/01/21 03:47:12;;;;;;;;;;;;;;;10.94;47.16;101492.06;4980632;28;128340;-63
2022/01/21 03:49:41;;;;;;;;;;;;;;;10.93;47.33;101498.53;4982146;28;115466;-56
2022/01/21 03:52:08;;;;;;;;;;;;;;;10.93;47.34;101497.72;4982585;27;97928;-56
2022/01/21 03:54:35;;;;;;;;;;;;;;;10.93;47.82;101497.72;4982708;27;100481;-56
2022/01/21 03:57:02;;;;;;;;;;;;;;;10.91;47.67;101497.94;4983352;27;99120;-63
2022/01/21 03:59:28;;;;;;;;;;;;;;;10.92;47.42;101499.56;4982074;27;98360;-57
2022/01/21 04:01:56;;;;;;;;;;;;;;;10.90;47.26;101504.41;4981659;28;127285;-56
2022/01/21 04:04:21;;;;;;;;;;;;;;;10.90;47.80;101506.28;4982915;27;97815;-56
2022/01/21 04:06:47;;;;;;;;;;;;;;;10.90;47.75;101514.38;4980969;28;127085;-63
2022/01/21 04:09:15;;;;;;;;;;;;;;;10.89;47.11;101516.28;4981900;27;127202;-56
2022/01/21 04:11:41;;;;;;;;;;;;;;;10.89;47.76;101516.28;4981923;27;98872;-62
2022/01/21 04:14:07;;;;;;;;;;;;;;;10.88;47.60;101514.59;4980779;28;101718;-63
2022/01/21 04:16:33;;;;;;;;;;;;;;;10.88;47.35;101527.28;4980272;28;109526;-63
2022/01/21 04:18:59;;;;;;;;;;;;;;;10.88;47.21;101527.28;4981501;28;127062;-63
2022/01/21 04:21:25;;;;;;;;;;;;;;;10.86;47.00;101529.41;4981140;28;127597;-63
2022/01/21 04:23:51;;;;;;;;;;;;;;;10.85;47.43;101536.69;4982789;27;97803;-63
2022/01/21 04:26:16;;;;;;;;;;;;;;;10.85;47.06;101539.41;4981046;28;127202;-56
2022/01/21 04:28:42;;;;;;;;;;;;;;;10.83;46.96;101533.41;4980365;28;128074;-63
2022/01/21 04:31:08;;;;;;;;;;;;;;;10.84;47.63;101545.81;4982194;28;127954;-56
2022/01/21 04:33:34;;;;;;;;;;;;;;;10.82;47.40;101538.00;4981198;27;117327;-56
2022/01/21 04:36:00;;;;;;;;;;;;;;;10.82;47.33;101540.69;5013070;27;127914;-56
2022/01/21 04:38:26;;;;;;;;;;;;;;;10.81;47.34;101546.34;4980464;27;128938;-56
2022/01/21 04:41:03;;;;;;;;;;;;;;;10.79;46.92;101541.16;4981734;27;97965;-56
2022/01/21 04:48:58;;;;;;;;;;;;;;;10.76;47.47;101538.94;4978641;28;98083;-56
2022/01/21 04:51:29;;;;;;;;;;;;;;;10.76;47.58;101547.03;4981410;28;98516;-56
2022/01/21 04:53:55;;;;;;;;;;;;;;;10.74;47.36;101542.97;4982904;28;97833;-56
2022/01/21 04:56:21;;;;;;;;;;;;;;;10.74;47.29;101545.66;4980918;28;128599;-63
2022/01/21 04:58:47;;;;;;;;;;;;;;;10.73;47.09;101544.03;4981486;28;104252;-62
2022/01/21 05:01:13;;;;;;;;;;;;;;;10.72;47.31;101542.38;4980948;27;127726;-63
2022/01/21 05:03:40;;;;;;;;;;;;;;;10.71;47.45;101546.97;4982207;27;97837;-63
2022/01/21 05:06:06;;;;;;;;;;;;;;;10.70;47.46;101548.03;4982004;27;98990;-56
2022/01/21 05:08:46;;;;;;;;;;;;;;;10.68;47.17;101547.44;4982025;27;99094;-63
2022/01/21 05:11:13;;;;;;;;;;;;;;;10.67;46.95;101547.69;4981875;27;97958;-56
2022/01/21 05:13:43;;;;;;;;;;;;;;;10.66;47.05;101554.97;4979708;28;97775;-62
2022/01/21 05:16:31;;;;;;;;;;;;;;;10.67;46.66;101556.59;4981084;27;98361;-56
2022/01/21 05:18:58;;;;;;;;;;;;;;;10.66;47.29;101560.34;4981233;27;98286;-56
2022/01/21 05:21:24;;;;;;;;;;;;;;;10.65;46.64;101565.97;4981444;27;98551;-63
2022/01/21 05:23:49;;;;;;;;;;;;;;;10.66;46.68;101567.63;4980742;28;117447;-63
2022/01/21 05:26:15;;;;;;;;;;;;;;;10.65;47.51;101565.97;4979812;27;129224;-63
2022/01/21 05:28:41;;;;;;;;;;;;;;;10.63;47.58;101566.22;4980945;28;98112;-56
2022/01/21 05:31:07;;;;;;;;;;;;;;;10.64;46.93;101561.66;4979429;27;127918;-56
2022/01/21 05:33:33;;;;;;;;;;;;;;;10.63;47.18;101557.31;4979252;28;116315;-57
2022/01/21 05:35:59;;;;;;;;;;;;;;;10.62;46.85;101556.50;4977120;28;128820;-56
2022/01/21 05:38:25;;;;;;;;;;;;;;;10.61;46.79;101549.47;4976173;28;127530;-56
2022/01/21 05:40:51;;;;;;;;;;;;;;;10.62;47.00;101551.13;4976262;27;98023;-56
2022/01/21 05:43:17;;;;;;;;;;;;;;;10.61;46.55;101562.97;4977244;27;97817;-56
2022/01/21 05:48:27;;;;;;;;;;;;;;;10.61;47.06;101551.34;4973664;28;98247;-56
2022/01/21 05:50:53;;;;;;;;;;;;;;;10.60;46.65;101547.00;4974464;27;123638;-56
2022/01/21 05:53:19;;;;;;;;;;;;;;;10.58;47.27;101549.97;4977428;28;98042;-56
2022/01/21 05:55:45;;;;;;;;;;;;;;;10.58;46.97;101544.56;4976075;28;98782;-56
2022/01/21 05:58:14;;;;;;;;;;;;;;;10.56;46.85;101547.47;4977252;27;127734;-56
2022/01/21 06:00:41;;;;;;;;;;;;;;;10.56;47.13;101547.47;4975674;27;120500;-56
2022/01/21 06:03:07;;;;;;;;;;;;;;;10.56;46.67;101546.66;4976789;27;108752;-56
2022/01/21 06:05:33;;;;;;;;;;;;;;;10.54;46.75;101546.09;4974486;28;128052;-57
2022/01/21 06:08:01;;;;;;;;;;;;;;;10.54;46.99;101543.41;4976392;28;98406;-56
2022/01/21 06:10:27;;;;;;;;;;;;;;;10.53;47.16;101550.69;4976375;27;110786;-56
2022/01/21 06:12:53;;;;;;;;;;;;;;;10.52;46.42;101545.53;4978694;28;98308;-56
2022/01/21 06:15:19;;;;;;;;;;;;;;;10.52;46.90;101540.94;4978876;27;100448;-56
2022/01/21 06:17:45;;;;;;;;;;;;;;;10.50;47.18;101542.25;4978768;28;114673;-57
2022/01/21 06:20:11;;;;;;;;;;;;;;;10.51;46.70;101551.97;4977767;28;127827;-56
2022/01/21 06:22:37;;;;;;;;;;;;;;;10.50;46.91;101544.97;4979852;27;97909;-56
2022/01/21 06:25:03;;;;;;;;;;;;;;;10.49;47.34;101546.84;4979054;28;98197;-56
2022/01/21 06:27:31;;;;;;;;;;;;;;;10.49;46.90;101546.84;4979160;27;118524;-56
2022/01/21 06:29:57;;;;;;;;;;;;;;;10.48;46.57;101550.56;4978941;27;98356;-56
2022/01/21 06:32:25;;;;;;;;;;;;;;;10.47;47.27;101551.63;4978267;27;119100;-56
2022/01/21 06:34:51;;;;;;;;;;;;;;;10.46;47.09;101558.09;4979783;27;98415;-57
2022/01/21 06:37:17;;;;;;;;;;;;;;;10.46;46.96;101554.59;4979418;28;118595;-56
2022/01/21 06:39:43;;;;;;;;;;;;;;;10.46;47.02;101554.59;4978783;28;116828;-56
2022/01/21 06:42:09;;;;;;;;;;;;;;;10.44;46.86;101552.09;4979400;27;98130;-56
2022/01/21 06:44:35;;;;;;;;;;;;;;;10.44;46.24;101557.50;4978486;27;105567;-57
2022/01/21 06:47:01;;;;;;;;;;;;;;;10.43;46.96;101555.88;4977932;28;116419;-56
2022/01/21 06:49:27;;;;;;;;;;;;;;;10.43;46.67;101552.34;4977916;27;97792;-56
2022/01/21 06:51:53;;;;;;;;;;;;;;;10.42;46.38;101554.25;4979043;28;97957;-56
2022/01/21 06:54:19;;;;;;;;;;;;;;;10.42;47.03;101551.53;4976504;28;121858;-56
2022/01/21 06:56:45;;;;;;;;;;;;;;;10.42;46.98;101548.84;4978778;28;125055;-56
2022/01/21 06:59:11;;;;;;;;;;;;;;;10.42;46.90;101548.03;4979604;28;97900;-63
2022/01/21 07:01:37;;;;;;;;;;;;;;;10.43;47.06;101546.97;4982277;27;97975;-56
2022/01/21 07:04:03;;;;;;;;;;;;;;;10.42;46.24;101539.94;4983017;28;110769;-56
2022/01/21 07:06:29;;;;;;;;;;;;;;;10.42;46.27;101534.56;4979717;27;121020;-63
2022/01/21 07:08:55;;;;;;;;;;;;;;;10.42;46.81;101537.25;4982455;28;98626;-56
2022/01/21 07:11:21;;;;;;;;;;;;;;;10.43;46.98;101536.19;4984127;27;97939;-64
2022/01/21 07:13:47;;;;;;;;;;;;;;;10.42;47.43;101546.16;4983422;28;109709;-56
2022/01/21 07:16:12;;;;;;;;;;;;;;;10.44;46.59;101533.25;4982940;28;109092;-63
2022/01/21 07:18:38;;;;;;;;;;;;;;;10.43;47.22;101531.59;4983183;27;98620;-64
2022/01/21 07:21:04;;;;;;;;;;;;;;;10.45;46.88;101529.50;4984479;27;97724;-64
2022/01/21 07:23:30;;;;;;;;;;;;;;;10.46;46.63;101528.44;4982249;28;114343;-63
2022/01/21 07:25:57;;;;;;;;;;;;;;;10.48;46.63;101538.97;4982095;27;120228;-63
2022/01/21 07:28:23;;;;;;;;;;;;;;;10.48;46.47;101534.41;4982524;28;98719;-63
2022/01/21 07:30:49;;;;;;;;;;;;;;;10.51;46.89;101528.53;4982044;27;113593;-64
2022/01/21 07:33:15;;;;;;;;;;;;;;;10.52;46.98;101532.84;4980949;27;127780;-64
2022/01/21 07:35:41;;;;;;;;;;;;;;;10.54;46.59;101530.75;4982556;27;98863;-56
2022/01/21 07:38:10;;;;;;;;;;;;;;;10.57;47.01;101529.44;4983316;28;106610;-56
2022/01/21 07:40:36;;;;;;;;;;;;;;;10.61;46.87;101535.16;4983049;27;97879;-63
2022/01/21 07:43:02;;;;;;;;;;;;;;;10.66;46.51;101540.66;4982914;27;100517;-63
2022/01/21 07:45:28;;;;;;;;;;;;;;;10.68;46.93;101542.03;4981970;27;124653;-64
2022/01/21 07:47:54;;;;;;;;;;;;;;;10.76;46.51;101540.84;4981685;27;115105;-56
2022/01/21 07:50:20;;;;;;;;;;;;;;;10.84;46.78;101531.53;4981300;27;115013;-56
2022/01/21 07:52:46;;;;;;;;;;;;;;;10.92;46.59;101540.03;4981852;28;128966;-57
2022/01/21 07:55:11;;;;;;;;;;;;;;;11.00;46.40;101533.41;4982106;28;126147;-56
2022/01/21 07:57:38;;;;;;;;;;;;;;;11.06;46.79;101538.66;4981972;28;119605;-56
2022/01/21 08:00:05;;;;;;;;;;;;;;;11.19;46.13;101534.00;4983163;27;97695;-63
2022/01/21 08:02:31;;;;;;;;;;;;;;;11.30;46.09;101530.41;4982150;27;110192;-63
2022/01/21 08:05:01;;;;;;;;;;;;;;;11.49;45.91;101539.88;4982522;27;98555;-64
2022/01/21 08:07:26;;;;;;;;;;;;;;;11.72;45.91;101543.47;4982729;27;98168;-64
2022/01/21 08:09:53;;;;;;;;;;;;;;;11.99;45.72;101538.19;4980359;28;118230;-63
2022/01/21 08:12:19;;;;;;;;;;;;;;;12.29;45.22;101543.13;5014139;27;99746;-63
2022/01/21 08:14:45;;;;;;;;;;;;;;;12.59;45.05;101544.56;4981319;27;121648;-64
2022/01/21 08:17:11;;;;;;;;;;;;;;;12.88;44.76;101531.56;4981573;28;126626;-64
2022/01/21 08:19:37;;;;;;;;;;;;;;;13.20;44.55;101545.09;4982305;27;97828;-64
2022/01/21 08:22:03;;;;;;;;;;;;;;;13.58;44.13;101540.53;4982916;28;118601;-63
2022/01/21 08:24:29;;;;;;;;;;;;;;;13.92;43.91;101549.94;4982695;27;107234;-64
2022/01/21 08:26:55;;;;;;;;;;;;;;;14.29;43.69;101543.59;4981875;28;127404;-64
2022/01/21 08:29:21;;;;;;;;;;;;;;;14.67;43.44;101539.66;4981842;28;115966;-64
2022/01/21 08:31:47;;;;;;;;;;;;;;;14.94;43.42;101552.19;4981406;27;128766;-64
2022/01/21 08:34:13;;;;;;;;;;;;;;;15.31;42.88;101560.06;4981800;27;98522;-63
2022/01/21 08:36:39;;;;;;;;;;;;;;;15.72;42.91;101546.47;4986447;27;105806;-63
2022/01/21 08:39:06;;;;;;;;;;;;;;;16.15;42.55;101557.72;4982502;27;97803;-64
2022/01/21 08:41:32;;;;;;;;;;;;;;;16.73;41.98;101551.69;4982333;27;99571;-64
2022/01/21 08:43:58;;;;;;;;;;;;;;;17.49;41.31;101553.00;4979800;28;119944;-63
2022/01/21 08:46:24;;;;;;;;;;;;;;;18.33;40.13;101557.00;4981471;27;126432;-63
2022/01/21 08:48:50;;;;;;;;;;;;;;;19.19;39.22;101559.56;4981596;28;116256;-63
2022/01/21 08:51:24;;;;;;;;;;;;;;;19.89;38.64;101555.06;4982087;27;99316;-63
2022/01/21 08:53:50;;;;;;;;;;;;;;;20.23;38.42;101560.09;4982887;27;98718;-64
2022/01/21 08:56:16;;;;;;;;;;;;;;;20.29;38.43;101567.91;4981706;27;113453;-65
2022/01/21 08:58:42;;;;;;;;;;;;;;;20.22;39.05;101572.16;4981239;27;107680;-64
2022/01/21 09:01:09;;;;;;;;;;;;;;;19.69;40.14;101565.28;4981514;27;97890;-64
2022/01/21 09:03:36;;;;;;;;;;;;;;;19.68;40.23;101569.13;4981705;27;99026;-64
2022/01/21 09:06:02;;;;;;;;;;;;;;;19.56;40.88;101568.75;4980902;28;122004;-64
2022/01/21 09:08:30;;;;;;;;;;;;;;;19.78;40.74;101568.13;4982266;28;97976;-64
2022/01/21 09:10:57;;;;;;;;;;;;;;;18.83;42.25;101570.25;4980596;27;98147;-64
2022/01/21 09:13:26;;;;;;;;;;;;;;;18.26;43.17;101575.63;4982243;28;98647;-64
2022/01/21 09:15:51;;;;;;;;;;;;;;;18.05;43.25;101563.38;4980076;27;98206;-64
2022/01/21 09:18:19;;;;;;;;;;;;;;;17.60;43.80;101570.88;4981659;28;99264;-63
2022/01/21 09:20:46;;;;;;;;;;;;;;;17.22;44.27;101569.91;4980377;27;98272;-64
2022/01/21 09:23:12;;;;;;;;;;;;;;;16.82;44.62;101572.66;4981301;28;98675;-64
2022/01/21 09:25:37;;;;;;;;;;;;;;;16.55;44.90;101559.44;4979754;27;98497;-64
2022/01/21 09:28:04;;;;;;;;;;;;;;;16.40;45.14;101570.41;4981072;28;117828;-64
2022/01/21 09:30:30;;;;;;;;;;;;;;;16.08;45.31;101565.38;4981043;28;116828;-64
2022/01/21 09:32:56;;;;;;;;;;;;;;;15.83;45.80;101567.06;4980279;28;120996;-63
2022/01/21 09:35:22;;;;;;;;;;;;;;;15.60;45.97;101573.06;4980740;27;97955;-64
2022/01/21 09:37:48;;;;;;;;;;;;;;;15.40;46.16;101576.59;4982103;28;109786;-63
2022/01/21 09:40:14;;;;;;;;;;;;;;;15.20;46.07;101580.97;4980120;27;127144;-64
2022/01/21 09:42:40;;;;;;;;;;;;;;;15.03;46.52;101579.59;4980994;28;115692;-63
2022/01/21 09:45:09;;;;;;;;;;;;;;;14.88;46.50;101583.13;4980247;28;127677;-64
2022/01/21 09:47:47;;;;;;;;;;;;;;;14.80;46.78;101594.50;4981683;27;98272;-63
2022/01/21 09:50:16;;;;;;;;;;;;;;;14.70;46.97;101590.69;4980761;27;98060;-63
2022/01/21 09:52:44;;;;;;;;;;;;;;;14.64;46.96;101593.66;4980381;27;98798;-64
2022/01/21 09:55:10;;;;;;;;;;;;;;;14.64;47.03;101590.94;4962050;28;124908;-63
2022/01/21 09:57:36;;;;;;;;;;;;;;;14.58;46.88;101583.84;4979815;27;117632;-63
2022/01/21 10:00:03;;;;;;;;;;;;;;;14.60;47.13;101584.41;4977594;28;127389;-63
2022/01/21 10:02:29;;;;;;;;;;;;;;;14.58;47.17;101584.69;4995360;27;111012;-65
2022/01/21 10:04:57;;;;;;;;;;;;;;;14.45;47.46;101575.09;4980285;27;121180;-63
2022/01/21 10:07:23;;;;;;;;;;;;;;;14.35;47.39;101571.56;4981287;27;98032;-63
2022/01/21 10:09:49;;;;;;;;;;;;;;;14.35;47.62;101569.66;4980644;28;98263;-62
2022/01/21 10:12:16;;;;;;;;;;;;;;;14.45;47.32;101571.56;4981486;28;98714;-63
2022/01/21 10:14:42;;;;;;;;;;;;;;;14.54;47.18;101563.75;4980685;27;98142;-56
2022/01/21 10:17:08;;;;;;;;;;;;;;;14.64;47.02;101561.91;4980535;27;97831;-56
2022/01/21 10:19:39;;;;;;;;;;;;;;;14.77;47.36;101562.47;4980756;27;98808;-63
2022/01/21 10:22:12;;;;;;;;;;;;;;;14.75;47.47;101556.50;4980458;27;99088;-63
2022/01/21 10:24:58;;;;;;;;;;;;;;;14.68;47.39;101540.47;4980878;27;98401;-63
2022/01/21 10:27:28;;;;;;;;;;;;;;;14.57;48.10;101563.22;4981103;27;97850;-56
2022/01/21 10:29:54;;;;;;;;;;;;;;;14.43;48.04;101569.16;4980886;28;98381;-63
2022/01/21 10:32:40;;;;;;;;;;;;;;;14.39;48.47;101568.03;4979477;28;98395;-63
2022/01/21 10:35:19;;;;;;;;;;;;;;;14.32;48.81;101572.91;4980467;27;108124;-63
2022/01/21 10:37:45;;;;;;;;;;;;;;;14.27;48.70;101577.50;4981094;28;97965;-63
2022/01/21 10:40:11;;;;;;;;;;;;;;;14.19;48.56;101570.69;4979538;28;127126;-63
2022/01/21 10:42:38;;;;;;;;;;;;;;;14.19;48.72;101578.81;4980939;27;121162;-63
2022/01/21 10:45:05;;;;;;;;;;;;;;;14.12;48.72;101581.75;4980528;28;107540;-64
2022/01/21 10:47:33;;;;;;;;;;;;;;;14.16;48.73;101587.47;4980790;27;97771;-62
2022/01/21 10:50:08;;;;;;;;;;;;;;;14.19;48.86;101582.34;4979766;27;98410;-63
2022/01/21 10:52:58;;;;;;;;;;;;;;;14.33;48.21;101587.28;4980597;28;98820;-63
2022/01/21 10:55:35;;;;;;;;;;;;;;;14.46;48.20;101589.47;4979859;27;97863;-63
2022/01/21 10:58:11;;;;;;;;;;;;;;;14.53;48.52;101583.84;4980713;27;97872;-63
2022/01/21 11:00:37;;;;;;;;;;;;;;;14.59;48.38;101582.78;4979634;27;99323;-56
2022/01/21 11:03:12;;;;;;;;;;;;;;;14.71;48.00;101592.31;4980270;28;107826;-63
2022/01/21 11:05:42;;;;;;;;;;;;;;;14.70;48.15;101587.16;4979762;27;97904;-56
2022/01/21 11:08:10;;;;;;;;;;;;;;;14.78;48.40;101569.53;4978367;28;97834;-56
2022/01/21 11:10:37;;;;;;;;;;;;;;;14.81;48.33;101580.66;4980269;28;99215;-61
2022/01/21 11:13:12;;;;;;;;;;;;;;;14.95;48.20;101575.53;4980859;27;99321;-56
2022/01/21 11:15:43;;;;;;;;;;;;;;;14.97;48.13;101579.63;4979850;27;97833;-63
2022/01/21 11:18:13;;;;;;;;;;;;;;;14.90;48.20;101576.34;4981207;27;97994;-56
2022/01/21 11:20:40;;;;;;;;;;;;;;;14.86;48.43;101569.81;4979826;28;99202;-62
2022/01/21 11:23:08;;;;;;;;;;;;;;;14.94;48.33;101574.72;4979256;27;98077;-63
2022/01/21 11:25:47;;;;;;;;;;;;;;;14.85;48.83;101573.59;4980020;28;98636;-63
2022/01/21 11:28:15;;;;;;;;;;;;;;;14.84;48.59;101571.16;4979687;27;97953;-56
2022/01/21 11:30:41;;;;;;;;;;;;;;;14.83;48.89;101567.63;4978404;27;121566;-56
2022/01/21 11:33:07;;;;;;;;;;;;;;;14.79;49.09;101561.13;4979655;28;128220;-63
2022/01/21 11:35:33;;;;;;;;;;;;;;;14.69;48.88;101570.03;4978232;28;126940;-57
2022/01/21 11:37:59;;;;;;;;;;;;;;;14.70;49.15;101555.41;4978721;27;104288;-56
2022/01/21 11:40:25;;;;;;;;;;;;;;;14.80;49.13;101557.31;4976455;28;128384;-63
2022/01/21 11:42:51;;;;;;;;;;;;;;;14.81;48.71;101548.06;4979985;27;104791;-63
2022/01/21 11:50:45;;;;;;;;;;;;;;;14.67;49.32;101539.66;4981659;27;98069;-64
2022/01/21 11:53:12;;;;;;;;;;;;;;;14.64;49.01;101540.19;4983363;27;99940;-64
2022/01/21 11:55:41;;;;;;;;;;;;;;;14.60;49.30;101541.00;4981525;27;123308;-63
2022/01/21 11:58:11;;;;;;;;;;;;;;;14.55;49.57;101554.56;4984128;27;97637;-63
2022/01/21 12:00:39;;;;;;;;;;;;;;;14.45;49.64;101553.41;4982734;28;98441;-57
2022/01/21 12:03:05;;;;;;;;;;;;;;;14.37;49.48;101553.91;4982147;28;99150;-56
2022/01/21 12:05:33;;;;;;;;;;;;;;;14.30;49.69;101561.47;4981967;27;121535;-64
2022/01/21 12:08:03;;;;;;;;;;;;;;;14.25;49.54;101556.84;4984662;28;97622;-63
2022/01/21 12:10:31;;;;;;;;;;;;;;;14.19;49.75;101551.69;4983209;27;98710;-56
2022/01/21 12:15:36;;;;;;;;;;;;;;;14.06;49.99;101538.63;4981807;27;97964;-64
2022/01/21 12:20:48;;;;;;;;;;;;;;;13.94;50.31;101536.13;4983020;27;97990;-65
2022/01/21 12:23:21;;;;;;;;;;;;;;;13.90;50.34;101535.03;4982368;28;116453;-56
2022/01/21 12:26:24;;;;;;;;;;;;;;;13.86;50.10;101540.16;4982253;27;98812;-64
2022/01/21 12:28:59;;;;;;;;;;;;;;;13.84;50.15;101536.09;4982799;28;98335;-64
2022/01/21 12:31:41;;;;;;;;;;;;;;;13.85;50.40;101543.13;4982747;27;98451;-56
2022/01/21 12:34:11;;;;;;;;;;;;;;;13.79;50.49;101539.56;4983091;27;99245;-63
2022/01/21 12:36:46;;;;;;;;;;;;;;;13.73;50.23;101529.78;4982172;27;98204;-56
2022/01/21 12:39:37;;;;;;;;;;;;;;;13.70;50.26;101543.84;4982821;27;97958;-56
2022/01/21 12:42:24;;;;;;;;;;;;;;;13.70;50.42;101541.97;4982472;27;99091;-56
2022/01/21 12:45:10;;;;;;;;;;;;;;;13.66;50.29;101548.97;4979324;27;98806;-63
2022/01/21 12:47:41;;;;;;;;;;;;;;;13.60;50.34;101543.81;4971197;27;98468;-63
2022/01/21 12:50:44;;;;;;;;;;;;;;;13.59;50.53;101544.88;4979503;28;98001;-63
2022/01/21 12:53:26;;;;;;;;;;;;;;;13.54;50.33;101551.06;4974900;28;98420;-63
2022/01/21 12:55:55;;;;;;;;;;;;;;;13.59;50.61;101555.69;4979350;27;98931;-63
2022/01/21 12:58:31;;;;;;;;;;;;;;;13.61;50.46;101550.84;4979158;28;98102;-63
2022/01/21 13:01:01;;;;;;;;;;;;;;;13.65;50.52;101541.94;4977259;27;107414;-63
2022/01/21 13:03:46;;;;;;;;;;;;;;;13.67;50.27;101539.75;4978527;28;112812;-63
2022/01/21 13:06:48;;;;;;;;;;;;;;;13.68;50.49;101537.91;4978119;27;98952;-63
2022/01/21 13:09:20;;;;;;;;;;;;;;;13.70;50.16;101533.84;4972413;28;98541;-63
2022/01/21 13:11:59;;;;;;;;;;;;;;;13.70;50.52;101535.72;4978917;27;98031;-63
2022/01/21 13:17:01;;;;;;;;;;;;;;;13.70;50.49;101530.31;4974911;27;99005;-63
2022/01/21 13:19:28;;;;;;;;;;;;;;;13.67;50.23;101526.22;4977295;27;98912;-63
2022/01/21 13:21:53;;;;;;;;;;;;;;;13.68;50.45;101532.47;4978793;27;97821;-64
2022/01/21 13:24:31;;;;;;;;;;;;;;;13.67;50.30;101536.25;4976871;28;127033;-63
2022/01/21 13:26:57;;;;;;;;;;;;;;;13.64;50.01;101537.59;4977305;28;98405;-63
2022/01/21 13:29:37;;;;;;;;;;;;;;;13.63;49.86;101544.06;4977825;28;97826;-63
2022/01/21 13:32:05;;;;;;;;;;;;;;;13.62;50.23;101530.81;4978470;28;98313;-63
2022/01/21 13:34:33;;;;;;;;;;;;;;;13.61;50.05;101542.72;4977841;27;99473;-63